sensor_id;sensor_type;location;lat;lon;timestamp;P1;durP1;ratioP1;P2;durP2;ratioP2
9370;SDS011;4725;48.384;8.984;2023-12-29T00:00:10;3.43;;;2.20;;
9370;SDS011;4725;48.384;8.984;2023-12-29T00:02:38;18.80;;;9.43;;
9370;SDS011;4725;48.384;8.984;2023-12-29T00:05:05;2.00;;;1.73;;
9370;SDS011;4725;48.384;8.984;2023-12-29T00:07:32;10.90;;;6.17;;
9370;SDS011;4725;48.384;8.984;2023-12-29T00:09:59;1.50;;;1.33;;
9370;SDS011;4725;48.384;8.984;2023-12-29T00:12:26;1.20;;;1.10;;
9370;SDS011;4725;48.384;8.984;2023-12-29T00:14:54;1.40;;;1.20;;
9370;SDS011;4725;48.384;8.984;2023-12-29T00:17:21;2.07;;;1.50;;
9370;SDS011;4725;48.384;8.984;2023-12-29T00:19:48;1.70;;;1.57;;
9370;SDS011;4725;48.384;8.984;2023-12-29T00:22:14;1.87;;;1.30;;
9370;SDS011;4725;48.384;8.984;2023-12-29T00:24:41;3.50;;;1.60;;
9370;SDS011;4725;48.384;8.984;2023-12-29T00:27:08;1.67;;;1.40;;
9370;SDS011;4725;48.384;8.984;2023-12-29T00:29:35;3.03;;;1.53;;
9370;SDS011;4725;48.384;8.984;2023-12-29T00:32:04;2.13;;;1.50;;
9370;SDS011;4725;48.384;8.984;2023-12-29T00:34:31;1.33;;;1.20;;
9370;SDS011;4725;48.384;8.984;2023-12-29T00:36:58;1.80;;;1.57;;
9370;SDS011;4725;48.384;8.984;2023-12-29T00:39:24;1.57;;;1.30;;
9370;SDS011;4725;48.384;8.984;2023-12-29T00:41:56;1.93;;;1.37;;
9370;SDS011;4725;48.384;8.984;2023-12-29T00:44:23;3.00;;;1.70;;
9370;SDS011;4725;48.384;8.984;2023-12-29T00:46:50;1.93;;;1.73;;
9370;SDS011;4725;48.384;8.984;2023-12-29T00:49:18;1.80;;;1.53;;
9370;SDS011;4725;48.384;8.984;2023-12-29T00:51:46;3.23;;;1.60;;
9370;SDS011;4725;48.384;8.984;2023-12-29T00:54:14;2.80;;;1.53;;
9370;SDS011;4725;48.384;8.984;2023-12-29T00:56:41;1.70;;;1.50;;
9370;SDS011;4725;48.384;8.984;2023-12-29T00:59:08;2.43;;;1.80;;
9370;SDS011;4725;48.384;8.984;2023-12-29T01:01:35;1.73;;;1.53;;
9370;SDS011;4725;48.384;8.984;2023-12-29T01:04:02;1.83;;;1.70;;
9370;SDS011;4725;48.384;8.984;2023-12-29T01:06:31;3.37;;;1.70;;
9370;SDS011;4725;48.384;8.984;2023-12-29T01:08:58;1.80;;;1.50;;
9370;SDS011;4725;48.384;8.984;2023-12-29T01:11:24;2.17;;;1.70;;
9370;SDS011;4725;48.384;8.984;2023-12-29T01:13:51;1.87;;;1.53;;
9370;SDS011;4725;48.384;8.984;2023-12-29T01:16:18;3.03;;;1.83;;
9370;SDS011;4725;48.384;8.984;2023-12-29T01:18:45;3.37;;;2.00;;
9370;SDS011;4725;48.384;8.984;2023-12-29T01:21:12;2.23;;;1.90;;
9370;SDS011;4725;48.384;8.984;2023-12-29T01:23:40;2.63;;;1.67;;
9370;SDS011;4725;48.384;8.984;2023-12-29T01:26:07;1.93;;;1.67;;
9370;SDS011;4725;48.384;8.984;2023-12-29T01:28:34;3.57;;;1.97;;
9370;SDS011;4725;48.384;8.984;2023-12-29T01:31:01;2.50;;;1.93;;
9370;SDS011;4725;48.384;8.984;2023-12-29T01:33:28;4.50;;;1.90;;
9370;SDS011;4725;48.384;8.984;2023-12-29T01:35:54;3.43;;;1.83;;
9370;SDS011;4725;48.384;8.984;2023-12-29T01:38:21;2.80;;;2.03;;
9370;SDS011;4725;48.384;8.984;2023-12-29T01:40:49;3.03;;;2.17;;
9370;SDS011;4725;48.384;8.984;2023-12-29T01:43:16;2.60;;;2.20;;
9370;SDS011;4725;48.384;8.984;2023-12-29T01:45:43;3.63;;;2.17;;
9370;SDS011;4725;48.384;8.984;2023-12-29T01:48:10;7.07;;;2.10;;
9370;SDS011;4725;48.384;8.984;2023-12-29T01:50:37;4.53;;;2.20;;
9370;SDS011;4725;48.384;8.984;2023-12-29T01:53:05;2.73;;;1.67;;
9370;SDS011;4725;48.384;8.984;2023-12-29T01:55:33;2.47;;;2.00;;
9370;SDS011;4725;48.384;8.984;2023-12-29T01:58:01;5.83;;;2.20;;
9370;SDS011;4725;48.384;8.984;2023-12-29T02:00:28;3.63;;;2.23;;
9370;SDS011;4725;48.384;8.984;2023-12-29T02:02:57;2.80;;;2.00;;
9370;SDS011;4725;48.384;8.984;2023-12-29T02:05:24;3.47;;;2.50;;
9370;SDS011;4725;48.384;8.984;2023-12-29T02:07:52;2.53;;;2.10;;
9370;SDS011;4725;48.384;8.984;2023-12-29T02:10:19;2.67;;;2.03;;
9370;SDS011;4725;48.384;8.984;2023-12-29T02:12:47;5.33;;;2.20;;
9370;SDS011;4725;48.384;8.984;2023-12-29T02:15:16;3.47;;;2.10;;
9370;SDS011;4725;48.384;8.984;2023-12-29T02:17:45;4.33;;;2.23;;
9370;SDS011;4725;48.384;8.984;2023-12-29T02:20:16;2.80;;;2.03;;
9370;SDS011;4725;48.384;8.984;2023-12-29T02:22:43;2.87;;;2.17;;
9370;SDS011;4725;48.384;8.984;2023-12-29T02:25:11;3.27;;;2.27;;
9370;SDS011;4725;48.384;8.984;2023-12-29T02:27:41;3.00;;;2.00;;
9370;SDS011;4725;48.384;8.984;2023-12-29T02:30:17;3.93;;;2.50;;
9370;SDS011;4725;48.384;8.984;2023-12-29T02:32:47;2.07;;;1.90;;
9370;SDS011;4725;48.384;8.984;2023-12-29T02:35:18;2.80;;;1.80;;
9370;SDS011;4725;48.384;8.984;2023-12-29T02:37:47;5.10;;;2.40;;
9370;SDS011;4725;48.384;8.984;2023-12-29T02:40:15;3.13;;;2.57;;
9370;SDS011;4725;48.384;8.984;2023-12-29T02:42:46;3.37;;;2.03;;
9370;SDS011;4725;48.384;8.984;2023-12-29T02:45:13;2.40;;;2.03;;
9370;SDS011;4725;48.384;8.984;2023-12-29T02:47:40;3.70;;;2.27;;
9370;SDS011;4725;48.384;8.984;2023-12-29T02:50:08;2.40;;;2.00;;
9370;SDS011;4725;48.384;8.984;2023-12-29T02:52:35;4.37;;;2.20;;
9370;SDS011;4725;48.384;8.984;2023-12-29T02:55:02;3.80;;;1.87;;
9370;SDS011;4725;48.384;8.984;2023-12-29T02:57:30;2.90;;;1.87;;
9370;SDS011;4725;48.384;8.984;2023-12-29T02:59:57;2.30;;;2.00;;
9370;SDS011;4725;48.384;8.984;2023-12-29T03:02:24;2.57;;;1.70;;
9370;SDS011;4725;48.384;8.984;2023-12-29T03:04:51;2.93;;;1.70;;
9370;SDS011;4725;48.384;8.984;2023-12-29T03:07:18;2.00;;;1.73;;
9370;SDS011;4725;48.384;8.984;2023-12-29T03:09:45;3.60;;;1.93;;
9370;SDS011;4725;48.384;8.984;2023-12-29T03:12:12;2.00;;;1.70;;
9370;SDS011;4725;48.384;8.984;2023-12-29T03:14:40;2.67;;;1.70;;
9370;SDS011;4725;48.384;8.984;2023-12-29T03:17:07;2.00;;;1.80;;
9370;SDS011;4725;48.384;8.984;2023-12-29T03:19:34;3.37;;;1.80;;
9370;SDS011;4725;48.384;8.984;2023-12-29T03:22:01;3.23;;;1.90;;
9370;SDS011;4725;48.384;8.984;2023-12-29T03:24:28;2.33;;;1.80;;
9370;SDS011;4725;48.384;8.984;2023-12-29T03:26:55;2.00;;;1.80;;
9370;SDS011;4725;48.384;8.984;2023-12-29T03:29:22;2.57;;;2.00;;
9370;SDS011;4725;48.384;8.984;2023-12-29T03:31:51;2.50;;;1.87;;
9370;SDS011;4725;48.384;8.984;2023-12-29T03:34:17;2.43;;;1.73;;
9370;SDS011;4725;48.384;8.984;2023-12-29T03:36:45;3.23;;;1.67;;
9370;SDS011;4725;48.384;8.984;2023-12-29T03:39:11;4.43;;;2.17;;
9370;SDS011;4725;48.384;8.984;2023-12-29T03:41:38;2.20;;;1.83;;
9370;SDS011;4725;48.384;8.984;2023-12-29T03:44:05;4.10;;;2.00;;
9370;SDS011;4725;48.384;8.984;2023-12-29T03:46:32;2.53;;;1.50;;
9370;SDS011;4725;48.384;8.984;2023-12-29T03:49:01;1.80;;;1.70;;
9370;SDS011;4725;48.384;8.984;2023-12-29T03:51:28;3.70;;;2.20;;
9370;SDS011;4725;48.384;8.984;2023-12-29T03:53:54;2.83;;;1.67;;
9370;SDS011;4725;48.384;8.984;2023-12-29T03:56:23;1.70;;;1.60;;
9370;SDS011;4725;48.384;8.984;2023-12-29T03:58:50;3.70;;;2.23;;
9370;SDS011;4725;48.384;8.984;2023-12-29T04:01:17;3.10;;;2.20;;
9370;SDS011;4725;48.384;8.984;2023-12-29T04:03:45;3.50;;;1.80;;
9370;SDS011;4725;48.384;8.984;2023-12-29T04:06:13;2.43;;;1.70;;
9370;SDS011;4725;48.384;8.984;2023-12-29T04:08:40;2.13;;;1.80;;
9370;SDS011;4725;48.384;8.984;2023-12-29T04:11:07;1.80;;;1.70;;
9370;SDS011;4725;48.384;8.984;2023-12-29T04:13:35;2.23;;;1.63;;
9370;SDS011;4725;48.384;8.984;2023-12-29T04:16:02;1.53;;;1.43;;
9370;SDS011;4725;48.384;8.984;2023-12-29T04:18:29;1.50;;;1.40;;
9370;SDS011;4725;48.384;8.984;2023-12-29T04:20:56;2.83;;;1.63;;
9370;SDS011;4725;48.384;8.984;2023-12-29T04:23:24;1.73;;;1.63;;
9370;SDS011;4725;48.384;8.984;2023-12-29T04:25:51;2.03;;;1.80;;
9370;SDS011;4725;48.384;8.984;2023-12-29T04:28:18;2.10;;;1.60;;
9370;SDS011;4725;48.384;8.984;2023-12-29T04:30:45;1.83;;;1.60;;
9370;SDS011;4725;48.384;8.984;2023-12-29T04:33:12;2.33;;;1.60;;
9370;SDS011;4725;48.384;8.984;2023-12-29T04:35:39;1.57;;;1.23;;
9370;SDS011;4725;48.384;8.984;2023-12-29T04:38:06;1.60;;;1.50;;
9370;SDS011;4725;48.384;8.984;2023-12-29T04:40:34;1.60;;;1.47;;
9370;SDS011;4725;48.384;8.984;2023-12-29T04:43:01;3.03;;;1.53;;
9370;SDS011;4725;48.384;8.984;2023-12-29T04:45:27;1.40;;;1.30;;
9370;SDS011;4725;48.384;8.984;2023-12-29T04:47:56;1.90;;;1.70;;
9370;SDS011;4725;48.384;8.984;2023-12-29T04:50:23;2.40;;;1.50;;
9370;SDS011;4725;48.384;8.984;2023-12-29T04:52:49;1.70;;;1.60;;
9370;SDS011;4725;48.384;8.984;2023-12-29T04:55:16;1.20;;;1.10;;
9370;SDS011;4725;48.384;8.984;2023-12-29T04:57:45;1.37;;;1.27;;
9370;SDS011;4725;48.384;8.984;2023-12-29T05:00:12;1.87;;;1.53;;
9370;SDS011;4725;48.384;8.984;2023-12-29T05:02:39;2.43;;;1.80;;
9370;SDS011;4725;48.384;8.984;2023-12-29T05:05:07;3.70;;;1.47;;
9370;SDS011;4725;48.384;8.984;2023-12-29T05:07:34;3.47;;;2.03;;
9370;SDS011;4725;48.384;8.984;2023-12-29T05:10:01;2.13;;;1.70;;
9370;SDS011;4725;48.384;8.984;2023-12-29T05:12:28;1.90;;;1.57;;
9370;SDS011;4725;48.384;8.984;2023-12-29T05:14:57;3.37;;;1.77;;
9370;SDS011;4725;48.384;8.984;2023-12-29T05:17:24;1.90;;;1.50;;
9370;SDS011;4725;48.384;8.984;2023-12-29T05:19:51;2.87;;;1.53;;
9370;SDS011;4725;48.384;8.984;2023-12-29T05:22:17;2.60;;;1.80;;
9370;SDS011;4725;48.384;8.984;2023-12-29T05:24:44;2.33;;;1.67;;
9370;SDS011;4725;48.384;8.984;2023-12-29T05:27:11;3.37;;;1.80;;
9370;SDS011;4725;48.384;8.984;2023-12-29T05:29:38;2.23;;;1.70;;
9370;SDS011;4725;48.384;8.984;2023-12-29T05:32:07;3.13;;;1.87;;
9370;SDS011;4725;48.384;8.984;2023-12-29T05:34:33;2.63;;;1.50;;
9370;SDS011;4725;48.384;8.984;2023-12-29T05:37:01;1.37;;;1.20;;
9370;SDS011;4725;48.384;8.984;2023-12-29T05:39:28;1.80;;;1.60;;
9370;SDS011;4725;48.384;8.984;2023-12-29T05:41:55;2.00;;;1.40;;
9370;SDS011;4725;48.384;8.984;2023-12-29T05:44:22;1.43;;;1.33;;
9370;SDS011;4725;48.384;8.984;2023-12-29T05:46:49;1.40;;;1.30;;
9370;SDS011;4725;48.384;8.984;2023-12-29T05:49:17;1.80;;;1.40;;
9370;SDS011;4725;48.384;8.984;2023-12-29T05:51:44;1.73;;;1.40;;
9370;SDS011;4725;48.384;8.984;2023-12-29T05:54:11;1.50;;;1.40;;
9370;SDS011;4725;48.384;8.984;2023-12-29T05:56:38;1.40;;;1.30;;
9370;SDS011;4725;48.384;8.984;2023-12-29T05:59:05;1.87;;;1.40;;
9370;SDS011;4725;48.384;8.984;2023-12-29T06:01:32;2.30;;;1.40;;
9370;SDS011;4725;48.384;8.984;2023-12-29T06:03:59;1.80;;;1.20;;
9370;SDS011;4725;48.384;8.984;2023-12-29T06:06:27;2.10;;;1.27;;
9370;SDS011;4725;48.384;8.984;2023-12-29T06:08:54;1.07;;;1.00;;
9370;SDS011;4725;48.384;8.984;2023-12-29T06:11:21;3.23;;;1.30;;
9370;SDS011;4725;48.384;8.984;2023-12-29T06:13:48;2.60;;;1.27;;
9370;SDS011;4725;48.384;8.984;2023-12-29T06:16:18;1.30;;;1.20;;
9370;SDS011;4725;48.384;8.984;2023-12-29T06:18:46;1.37;;;1.27;;
9370;SDS011;4725;48.384;8.984;2023-12-29T06:21:13;1.60;;;1.10;;
9370;SDS011;4725;48.384;8.984;2023-12-29T06:23:41;1.10;;;1.00;;
9370;SDS011;4725;48.384;8.984;2023-12-29T06:26:13;1.87;;;1.40;;
9370;SDS011;4725;48.384;8.984;2023-12-29T06:28:42;1.30;;;1.10;;
9370;SDS011;4725;48.384;8.984;2023-12-29T06:31:09;0.90;;;0.90;;
9370;SDS011;4725;48.384;8.984;2023-12-29T06:33:36;1.43;;;1.20;;
9370;SDS011;4725;48.384;8.984;2023-12-29T06:36:03;1.60;;;1.40;;
9370;SDS011;4725;48.384;8.984;2023-12-29T06:38:30;1.73;;;1.10;;
9370;SDS011;4725;48.384;8.984;2023-12-29T06:41:00;1.90;;;1.40;;
9370;SDS011;4725;48.384;8.984;2023-12-29T06:43:28;1.27;;;1.07;;
9370;SDS011;4725;48.384;8.984;2023-12-29T06:45:55;2.70;;;1.30;;
9370;SDS011;4725;48.384;8.984;2023-12-29T06:48:22;1.30;;;1.20;;
9370;SDS011;4725;48.384;8.984;2023-12-29T06:50:49;1.10;;;1.00;;
9370;SDS011;4725;48.384;8.984;2023-12-29T06:53:15;1.33;;;1.23;;
9370;SDS011;4725;48.384;8.984;2023-12-29T06:55:42;1.17;;;1.07;;
9370;SDS011;4725;48.384;8.984;2023-12-29T06:58:11;1.63;;;1.20;;
9370;SDS011;4725;48.384;8.984;2023-12-29T07:00:38;1.67;;;1.20;;
9370;SDS011;4725;48.384;8.984;2023-12-29T07:03:05;1.10;;;1.00;;
9370;SDS011;4725;48.384;8.984;2023-12-29T07:05:32;1.30;;;1.20;;
9370;SDS011;4725;48.384;8.984;2023-12-29T07:07:59;1.77;;;1.13;;
9370;SDS011;4725;48.384;8.984;2023-12-29T07:10:25;1.63;;;1.23;;
9370;SDS011;4725;48.384;8.984;2023-12-29T07:12:52;0.90;;;0.90;;
9370;SDS011;4725;48.384;8.984;2023-12-29T07:15:21;1.63;;;1.13;;
9370;SDS011;4725;48.384;8.984;2023-12-29T07:17:48;1.57;;;1.10;;
9370;SDS011;4725;48.384;8.984;2023-12-29T07:20:15;1.20;;;1.10;;
9370;SDS011;4725;48.384;8.984;2023-12-29T07:22:42;1.10;;;1.00;;
9370;SDS011;4725;48.384;8.984;2023-12-29T07:25:09;3.77;;;1.13;;
9370;SDS011;4725;48.384;8.984;2023-12-29T07:27:38;1.93;;;1.20;;
9370;SDS011;4725;48.384;8.984;2023-12-29T07:30:05;1.70;;;1.10;;
9370;SDS011;4725;48.384;8.984;2023-12-29T07:32:35;1.80;;;1.20;;
9370;SDS011;4725;48.384;8.984;2023-12-29T07:35:02;1.10;;;1.00;;
9370;SDS011;4725;48.384;8.984;2023-12-29T07:37:29;1.13;;;0.97;;
9370;SDS011;4725;48.384;8.984;2023-12-29T07:39:56;3.90;;;1.20;;
9370;SDS011;4725;48.384;8.984;2023-12-29T07:42:23;1.20;;;1.10;;
9370;SDS011;4725;48.384;8.984;2023-12-29T07:44:50;1.47;;;0.93;;
9370;SDS011;4725;48.384;8.984;2023-12-29T07:47:17;1.20;;;1.00;;
9370;SDS011;4725;48.384;8.984;2023-12-29T07:49:45;1.20;;;1.10;;
9370;SDS011;4725;48.384;8.984;2023-12-29T07:52:12;1.37;;;1.20;;
9370;SDS011;4725;48.384;8.984;2023-12-29T07:54:39;1.10;;;1.00;;
9370;SDS011;4725;48.384;8.984;2023-12-29T07:57:06;1.10;;;1.00;;
9370;SDS011;4725;48.384;8.984;2023-12-29T07:59:33;1.13;;;1.03;;
9370;SDS011;4725;48.384;8.984;2023-12-29T08:02:00;1.93;;;1.10;;
9370;SDS011;4725;48.384;8.984;2023-12-29T08:04:27;1.73;;;0.87;;
9370;SDS011;4725;48.384;8.984;2023-12-29T08:06:55;0.70;;;0.70;;
9370;SDS011;4725;48.384;8.984;2023-12-29T08:09:22;4.20;;;1.07;;
9370;SDS011;4725;48.384;8.984;2023-12-29T08:11:49;0.90;;;0.90;;
9370;SDS011;4725;48.384;8.984;2023-12-29T08:14:15;0.83;;;0.80;;
9370;SDS011;4725;48.384;8.984;2023-12-29T08:16:42;1.20;;;1.10;;
9370;SDS011;4725;48.384;8.984;2023-12-29T08:19:09;1.23;;;1.13;;
9370;SDS011;4725;48.384;8.984;2023-12-29T08:21:36;1.07;;;1.00;;
9370;SDS011;4725;48.384;8.984;2023-12-29T08:24:05;3.10;;;1.10;;
9370;SDS011;4725;48.384;8.984;2023-12-29T08:26:32;1.07;;;0.90;;
9370;SDS011;4725;48.384;8.984;2023-12-29T08:28:59;1.00;;;0.90;;
9370;SDS011;4725;48.384;8.984;2023-12-29T08:31:25;0.83;;;0.80;;
9370;SDS011;4725;48.384;8.984;2023-12-29T08:33:54;0.70;;;0.70;;
9370;SDS011;4725;48.384;8.984;2023-12-29T08:36:21;1.50;;;0.77;;
9370;SDS011;4725;48.384;8.984;2023-12-29T08:38:48;1.17;;;1.07;;
9370;SDS011;4725;48.384;8.984;2023-12-29T08:41:16;1.23;;;1.00;;
9370;SDS011;4725;48.384;8.984;2023-12-29T08:43:43;2.50;;;1.37;;
9370;SDS011;4725;48.384;8.984;2023-12-29T08:46:10;1.43;;;1.30;;
9370;SDS011;4725;48.384;8.984;2023-12-29T08:48:37;1.33;;;0.97;;
9370;SDS011;4725;48.384;8.984;2023-12-29T08:51:03;0.83;;;0.83;;
9370;SDS011;4725;48.384;8.984;2023-12-29T08:53:31;0.97;;;0.93;;
9370;SDS011;4725;48.384;8.984;2023-12-29T08:56:00;1.10;;;1.00;;
9370;SDS011;4725;48.384;8.984;2023-12-29T08:58:29;1.17;;;1.07;;
9370;SDS011;4725;48.384;8.984;2023-12-29T09:00:56;0.80;;;0.80;;
9370;SDS011;4725;48.384;8.984;2023-12-29T09:03:23;0.83;;;0.83;;
9370;SDS011;4725;48.384;8.984;2023-12-29T09:05:50;2.20;;;1.00;;
9370;SDS011;4725;48.384;8.984;2023-12-29T09:08:17;0.97;;;0.90;;
9370;SDS011;4725;48.384;8.984;2023-12-29T09:10:43;1.23;;;1.10;;
9370;SDS011;4725;48.384;8.984;2023-12-29T09:13:10;1.43;;;1.07;;
9370;SDS011;4725;48.384;8.984;2023-12-29T09:15:38;0.77;;;0.77;;
9370;SDS011;4725;48.384;8.984;2023-12-29T09:18:05;1.00;;;0.80;;
9370;SDS011;4725;48.384;8.984;2023-12-29T09:20:32;1.20;;;1.10;;
9370;SDS011;4725;48.384;8.984;2023-12-29T09:22:59;0.80;;;0.80;;
9370;SDS011;4725;48.384;8.984;2023-12-29T09:25:28;1.50;;;1.00;;
9370;SDS011;4725;48.384;8.984;2023-12-29T09:27:55;0.80;;;0.80;;
9370;SDS011;4725;48.384;8.984;2023-12-29T09:30:22;1.10;;;0.80;;
9370;SDS011;4725;48.384;8.984;2023-12-29T09:32:50;1.10;;;1.00;;
9370;SDS011;4725;48.384;8.984;2023-12-29T09:35:17;0.97;;;0.80;;
9370;SDS011;4725;48.384;8.984;2023-12-29T09:37:45;3.43;;;0.90;;
9370;SDS011;4725;48.384;8.984;2023-12-29T09:40:13;0.63;;;0.63;;
9370;SDS011;4725;48.384;8.984;2023-12-29T09:42:41;1.47;;;0.70;;
9370;SDS011;4725;48.384;8.984;2023-12-29T09:45:11;1.03;;;0.93;;
9370;SDS011;4725;48.384;8.984;2023-12-29T09:47:38;0.67;;;0.67;;
9370;SDS011;4725;48.384;8.984;2023-12-29T09:50:10;1.00;;;0.87;;
9370;SDS011;4725;48.384;8.984;2023-12-29T09:52:38;0.70;;;0.70;;
9370;SDS011;4725;48.384;8.984;2023-12-29T09:55:07;0.67;;;0.67;;
9370;SDS011;4725;48.384;8.984;2023-12-29T09:57:36;0.80;;;0.80;;
9370;SDS011;4725;48.384;8.984;2023-12-29T10:00:03;0.80;;;0.80;;
9370;SDS011;4725;48.384;8.984;2023-12-29T10:02:31;1.30;;;0.90;;
9370;SDS011;4725;48.384;8.984;2023-12-29T10:04:59;0.90;;;0.90;;
9370;SDS011;4725;48.384;8.984;2023-12-29T10:07:31;0.93;;;0.80;;
9370;SDS011;4725;48.384;8.984;2023-12-29T10:10:01;1.50;;;0.87;;
9370;SDS011;4725;48.384;8.984;2023-12-29T10:12:30;0.50;;;0.50;;
9370;SDS011;4725;48.384;8.984;2023-12-29T10:15:01;0.73;;;0.70;;
9370;SDS011;4725;48.384;8.984;2023-12-29T10:17:35;0.70;;;0.70;;
9370;SDS011;4725;48.384;8.984;2023-12-29T10:20:08;1.10;;;0.80;;
9370;SDS011;4725;48.384;8.984;2023-12-29T10:22:44;1.00;;;0.90;;
9370;SDS011;4725;48.384;8.984;2023-12-29T10:25:16;1.97;;;1.03;;
9370;SDS011;4725;48.384;8.984;2023-12-29T10:27:43;1.00;;;0.90;;
9370;SDS011;4725;48.384;8.984;2023-12-29T10:30:11;0.77;;;0.77;;
9370;SDS011;4725;48.384;8.984;2023-12-29T10:32:38;1.57;;;0.90;;
9370;SDS011;4725;48.384;8.984;2023-12-29T10:35:08;0.63;;;0.63;;
9370;SDS011;4725;48.384;8.984;2023-12-29T10:37:36;0.80;;;0.80;;
9370;SDS011;4725;48.384;8.984;2023-12-29T10:40:05;1.10;;;0.90;;
9370;SDS011;4725;48.384;8.984;2023-12-29T10:42:33;1.33;;;1.00;;
9370;SDS011;4725;48.384;8.984;2023-12-29T10:45:04;1.02;;;0.85;;
9370;SDS011;4725;48.384;8.984;2023-12-29T10:47:32;1.57;;;0.80;;
9370;SDS011;4725;48.384;8.984;2023-12-29T10:50:00;1.13;;;1.03;;
9370;SDS011;4725;48.384;8.984;2023-12-29T10:52:29;1.00;;;0.90;;
9370;SDS011;4725;48.384;8.984;2023-12-29T10:55:05;1.77;;;0.90;;
9370;SDS011;4725;48.384;8.984;2023-12-29T10:57:33;0.83;;;0.80;;
9370;SDS011;4725;48.384;8.984;2023-12-29T11:00:00;0.90;;;0.90;;
9370;SDS011;4725;48.384;8.984;2023-12-29T11:02:27;0.90;;;0.80;;
9370;SDS011;4725;48.384;8.984;2023-12-29T11:05:01;0.90;;;0.90;;
9370;SDS011;4725;48.384;8.984;2023-12-29T11:07:32;2.87;;;1.60;;
9370;SDS011;4725;48.384;8.984;2023-12-29T11:10:00;1.13;;;0.97;;
9370;SDS011;4725;48.384;8.984;2023-12-29T11:12:30;1.00;;;0.80;;
9370;SDS011;4725;48.384;8.984;2023-12-29T11:14:58;1.10;;;1.00;;
9370;SDS011;4725;48.384;8.984;2023-12-29T11:17:27;1.73;;;1.20;;
9370;SDS011;4725;48.384;8.984;2023-12-29T11:19:57;1.40;;;0.87;;
9370;SDS011;4725;48.384;8.984;2023-12-29T11:22:25;1.27;;;1.17;;
9370;SDS011;4725;48.384;8.984;2023-12-29T11:24:55;1.67;;;1.20;;
9370;SDS011;4725;48.384;8.984;2023-12-29T11:27:23;0.90;;;0.90;;
9370;SDS011;4725;48.384;8.984;2023-12-29T11:29:55;2.10;;;1.00;;
9370;SDS011;4725;48.384;8.984;2023-12-29T11:32:24;1.20;;;0.97;;
9370;SDS011;4725;48.384;8.984;2023-12-29T11:34:58;1.50;;;1.40;;
9370;SDS011;4725;48.384;8.984;2023-12-29T11:37:36;1.90;;;1.20;;
9370;SDS011;4725;48.384;8.984;2023-12-29T11:40:16;2.73;;;2.00;;
9370;SDS011;4725;48.384;8.984;2023-12-29T11:42:47;1.77;;;1.43;;
9370;SDS011;4725;48.384;8.984;2023-12-29T11:45:28;1.20;;;1.10;;
9370;SDS011;4725;48.384;8.984;2023-12-29T11:47:57;1.43;;;0.93;;
9370;SDS011;4725;48.384;8.984;2023-12-29T11:50:28;0.87;;;0.87;;
9370;SDS011;4725;48.384;8.984;2023-12-29T11:52:57;0.93;;;0.80;;
9370;SDS011;4725;48.384;8.984;2023-12-29T11:55:28;1.00;;;0.90;;
9370;SDS011;4725;48.384;8.984;2023-12-29T11:57:56;1.20;;;0.90;;
9370;SDS011;4725;48.384;8.984;2023-12-29T12:03:16;3.20;;;2.27;;
9370;SDS011;4725;48.384;8.984;2023-12-29T12:05:45;0.93;;;0.83;;
9370;SDS011;4725;48.384;8.984;2023-12-29T12:08:29;1.10;;;1.00;;
9370;SDS011;4725;48.384;8.984;2023-12-29T12:10:57;1.00;;;0.90;;
9370;SDS011;4725;48.384;8.984;2023-12-29T12:13:46;0.80;;;0.80;;
9370;SDS011;4725;48.384;8.984;2023-12-29T12:19:15;1.43;;;1.00;;
9370;SDS011;4725;48.384;8.984;2023-12-29T12:21:44;1.00;;;1.00;;
9370;SDS011;4725;48.384;8.984;2023-12-29T12:24:13;1.03;;;0.90;;
9370;SDS011;4725;48.384;8.984;2023-12-29T12:26:41;0.97;;;0.90;;
9370;SDS011;4725;48.384;8.984;2023-12-29T12:29:08;1.53;;;1.07;;
9370;SDS011;4725;48.384;8.984;2023-12-29T12:31:36;0.87;;;0.87;;
9370;SDS011;4725;48.384;8.984;2023-12-29T12:34:05;1.03;;;0.93;;
9370;SDS011;4725;48.384;8.984;2023-12-29T12:36:31;2.53;;;1.30;;
9370;SDS011;4725;48.384;8.984;2023-12-29T12:38:58;0.97;;;0.80;;
9370;SDS011;4725;48.384;8.984;2023-12-29T12:41:26;1.00;;;0.90;;
9370;SDS011;4725;48.384;8.984;2023-12-29T12:43:56;1.47;;;1.27;;
9370;SDS011;4725;48.384;8.984;2023-12-29T12:46:29;0.73;;;0.60;;
9370;SDS011;4725;48.384;8.984;2023-12-29T12:49:00;1.60;;;1.03;;
9370;SDS011;4725;48.384;8.984;2023-12-29T12:51:29;1.10;;;0.90;;
9370;SDS011;4725;48.384;8.984;2023-12-29T12:53:56;2.70;;;1.30;;
9370;SDS011;4725;48.384;8.984;2023-12-29T12:56:23;1.93;;;0.90;;
9370;SDS011;4725;48.384;8.984;2023-12-29T12:58:52;1.17;;;1.07;;
9370;SDS011;4725;48.384;8.984;2023-12-29T13:01:21;2.23;;;1.10;;
9370;SDS011;4725;48.384;8.984;2023-12-29T13:03:48;1.10;;;0.90;;
9370;SDS011;4725;48.384;8.984;2023-12-29T13:06:15;1.10;;;1.00;;
9370;SDS011;4725;48.384;8.984;2023-12-29T13:08:44;1.27;;;1.17;;
9370;SDS011;4725;48.384;8.984;2023-12-29T13:11:11;1.00;;;0.90;;
9370;SDS011;4725;48.384;8.984;2023-12-29T13:13:38;4.50;;;2.83;;
9370;SDS011;4725;48.384;8.984;2023-12-29T13:16:06;1.97;;;1.10;;
9370;SDS011;4725;48.384;8.984;2023-12-29T13:18:33;1.20;;;1.10;;
9370;SDS011;4725;48.384;8.984;2023-12-29T13:21:00;0.90;;;0.90;;
9370;SDS011;4725;48.384;8.984;2023-12-29T13:23:27;2.17;;;1.13;;
9370;SDS011;4725;48.384;8.984;2023-12-29T13:25:57;1.93;;;1.03;;
9370;SDS011;4725;48.384;8.984;2023-12-29T13:28:25;1.00;;;1.00;;
9370;SDS011;4725;48.384;8.984;2023-12-29T13:30:53;25.07;;;12.70;;
9370;SDS011;4725;48.384;8.984;2023-12-29T13:33:24;34.43;;;21.17;;
9370;SDS011;4725;48.384;8.984;2023-12-29T13:35:54;23.73;;;10.90;;
9370;SDS011;4725;48.384;8.984;2023-12-29T13:38:33;21.90;;;9.20;;
9370;SDS011;4725;48.384;8.984;2023-12-29T13:41:04;17.27;;;6.37;;
9370;SDS011;4725;48.384;8.984;2023-12-29T13:43:35;13.33;;;5.47;;
9370;SDS011;4725;48.384;8.984;2023-12-29T13:46:07;11.00;;;5.33;;
9370;SDS011;4725;48.384;8.984;2023-12-29T13:48:36;6.90;;;4.90;;
9370;SDS011;4725;48.384;8.984;2023-12-29T13:51:05;1.60;;;1.30;;
9370;SDS011;4725;48.384;8.984;2023-12-29T13:53:32;1.30;;;0.93;;
9370;SDS011;4725;48.384;8.984;2023-12-29T13:56:07;4.07;;;1.20;;
9370;SDS011;4725;48.384;8.984;2023-12-29T13:58:35;1.40;;;0.87;;
9370;SDS011;4725;48.384;8.984;2023-12-29T14:01:03;1.00;;;0.90;;
9370;SDS011;4725;48.384;8.984;2023-12-29T14:03:37;1.30;;;1.00;;
9370;SDS011;4725;48.384;8.984;2023-12-29T14:06:08;1.13;;;0.93;;
9370;SDS011;4725;48.384;8.984;2023-12-29T14:08:39;2.33;;;1.43;;
9370;SDS011;4725;48.384;8.984;2023-12-29T14:11:09;2.67;;;1.40;;
9370;SDS011;4725;48.384;8.984;2023-12-29T14:13:40;1.53;;;0.90;;
9370;SDS011;4725;48.384;8.984;2023-12-29T14:16:07;1.20;;;1.00;;
9370;SDS011;4725;48.384;8.984;2023-12-29T14:18:42;1.87;;;1.00;;
9370;SDS011;4725;48.384;8.984;2023-12-29T14:21:22;1.97;;;1.17;;
9370;SDS011;4725;48.384;8.984;2023-12-29T14:23:57;1.70;;;1.50;;
9370;SDS011;4725;48.384;8.984;2023-12-29T14:26:33;2.60;;;1.67;;
9370;SDS011;4725;48.384;8.984;2023-12-29T14:29:00;2.40;;;1.60;;
9370;SDS011;4725;48.384;8.984;2023-12-29T14:31:28;2.47;;;1.80;;
9370;SDS011;4725;48.384;8.984;2023-12-29T14:33:55;3.23;;;2.30;;
9370;SDS011;4725;48.384;8.984;2023-12-29T14:36:22;2.93;;;2.00;;
9370;SDS011;4725;48.384;8.984;2023-12-29T14:38:49;2.70;;;2.00;;
9370;SDS011;4725;48.384;8.984;2023-12-29T14:41:16;3.27;;;1.60;;
9370;SDS011;4725;48.384;8.984;2023-12-29T14:43:44;1.80;;;1.67;;
9370;SDS011;4725;48.384;8.984;2023-12-29T14:46:11;3.00;;;1.40;;
9370;SDS011;4725;48.384;8.984;2023-12-29T14:48:38;1.93;;;1.73;;
9370;SDS011;4725;48.384;8.984;2023-12-29T14:51:05;2.40;;;1.60;;
9370;SDS011;4725;48.384;8.984;2023-12-29T14:53:31;2.73;;;1.40;;
9370;SDS011;4725;48.384;8.984;2023-12-29T14:55:59;1.93;;;1.23;;
9370;SDS011;4725;48.384;8.984;2023-12-29T14:58:26;2.03;;;1.30;;
9370;SDS011;4725;48.384;8.984;2023-12-29T15:00:54;2.03;;;1.23;;
9370;SDS011;4725;48.384;8.984;2023-12-29T15:03:21;1.67;;;1.20;;
9370;SDS011;4725;48.384;8.984;2023-12-29T15:05:48;1.40;;;1.07;;
9370;SDS011;4725;48.384;8.984;2023-12-29T15:08:16;1.80;;;1.30;;
9370;SDS011;4725;48.384;8.984;2023-12-29T15:10:43;1.70;;;1.30;;
9370;SDS011;4725;48.384;8.984;2023-12-29T15:13:10;2.40;;;1.60;;
9370;SDS011;4725;48.384;8.984;2023-12-29T15:15:37;2.07;;;1.20;;
9370;SDS011;4725;48.384;8.984;2023-12-29T15:18:06;3.97;;;1.30;;
9370;SDS011;4725;48.384;8.984;2023-12-29T15:20:33;1.60;;;1.40;;
9370;SDS011;4725;48.384;8.984;2023-12-29T15:23:00;1.30;;;1.20;;
9370;SDS011;4725;48.384;8.984;2023-12-29T15:25:27;1.50;;;1.37;;